North Babylon, New York
Current Conditions -  °F | °C
As of 10:56 PM on Tuesday 25 Nov 2014 (Local Time) from KISP Reporting Station
Overcast Overcast  
Wind Chill: 46°   Ceiling: 17000
Heat Index: 48°   Visibility: 10mi
Dew Point: 34°   Wind: 5mph
Humidity: 58%   Direction: 290°WNW
Pressure: 30.13"   Gusts: NA
Location:  40.74°N, 73.32°W
Report Text: KISP 260356Z 29004KT 10SM BKN170 OVC220 09/01 A3013 RMK AO2 SLP204 T00890011
Loading
Personal Weather Stations






























Interactive Weather Map New forecast layout! Learn more

10-Day Weather Forecast

Advertisements
Track Severe Weather on mobile